Time;durP1;ratioP1;P1;durP2;ratioP2;P2;SDS_P1;SDS_P2;PMS_P1;PMS_P2;Temp;Humidity;BMP_temperature;BMP_pressure;BME280_temperature;BME280_humidity;BME280_pressure;Samples;Min_cycle;Max_cycle;Signal;HPM_P1;HPM_P2
2022/05/24 00:02:03;;;;;;;4.55;1.13;;;;;;;;;;5053036;28;20033;-65
2022/05/24 00:04:30;;;;;;;10.07;1.70;;;;;;;;;;5052533;28;20049;-65
2022/05/24 00:06:56;;;;;;;10.85;1.63;;;;;;;;;;5052828;28;20021;-65
2022/05/24 00:09:23;;;;;;;12.15;1.40;;;;;;;;;;5054093;28;20477;-65
2022/05/24 00:11:49;;;;;;;4.13;1.35;;;;;;;;;;5059333;28;20024;-65
2022/05/24 00:14:15;;;;;;;9.27;1.60;;;;;;;;;;5052637;28;20065;-65
2022/05/24 00:16:44;;;;;;;13.18;1.63;;;;;;;;;;5052846;28;20024;-65
2022/05/24 00:19:10;;;;;;;7.78;1.50;;;;;;;;;;5052606;28;20098;-65
2022/05/24 00:21:37;;;;;;;6.82;1.50;;;;;;;;;;5052572;28;20389;-65
2022/05/24 00:24:03;;;;;;;8.07;1.60;;;;;;;;;;5065231;28;20024;-65
2022/05/24 00:26:31;;;;;;;15.57;2.05;;;;;;;;;;5052894;28;20044;-65
2022/05/24 00:28:58;;;;;;;8.57;1.67;;;;;;;;;;5052368;28;20025;-65
2022/05/24 00:31:24;;;;;;;9.75;2.08;;;;;;;;;;5052363;28;20009;-65
2022/05/24 00:33:50;;;;;;;8.25;1.88;;;;;;;;;;5052501;28;20040;-65
2022/05/24 00:36:18;;;;;;;11.18;1.42;;;;;;;;;;5052036;28;20013;-65
2022/05/24 00:38:44;;;;;;;8.38;1.75;;;;;;;;;;5058459;28;20425;-65
2022/05/24 00:41:17;;;;;;;9.88;2.33;;;;;;;;;;5052524;28;20090;-65
2022/05/24 00:43:43;;;;;;;;;;;;;;;;;;5052734;28;20083;-65
2022/05/24 00:46:12;;;;;;;3.63;1.35;;;;;;;;;;5051440;28;19904;-65
2022/05/24 00:48:43;;;;;;;16.35;2.33;;;;;;;;;;5051218;28;20114;-65
2022/05/24 00:51:11;;;;;;;10.98;2.00;;;;;;;;;;5051784;28;20021;-65
2022/05/24 00:53:39;;;;;;;6.32;1.30;;;;;;;;;;5056856;28;20021;-65
2022/05/24 00:56:11;;;;;;;7.30;1.40;;;;;;;;;;5055437;28;20028;-65
2022/05/24 00:58:39;;;;;;;13.18;1.85;;;;;;;;;;5052227;28;20452;-64
2022/05/24 01:01:16;;;;;;;8.48;1.50;;;;;;;;;;5051701;28;20055;-65
2022/05/24 01:03:42;;;;;;;11.48;1.65;;;;;;;;;;5051764;28;20459;-65
2022/05/24 01:06:08;;;;;;;7.25;1.40;;;;;;;;;;5051937;28;20021;-65
2022/05/24 01:08:34;;;;;;;6.57;1.42;;;;;;;;;;5051043;28;20075;-65
2022/05/24 01:11:02;;;;;;;6.45;1.52;;;;;;;;;;5051840;28;20017;-65
2022/05/24 01:13:30;;;;;;;7.82;1.23;;;;;;;;;;5051423;28;20029;-65
2022/05/24 01:15:56;;;;;;;7.88;1.65;;;;;;;;;;5051803;28;20175;-65
2022/05/24 01:18:24;;;;;;;5.80;1.40;;;;;;;;;;5051280;28;20028;-65
2022/05/24 01:20:54;;;;;;;8.18;1.60;;;;;;;;;;5052142;28;20083;-65
2022/05/24 01:23:32;;;;;;;7.97;1.63;;;;;;;;;;5051623;28;20021;-65
2022/05/24 01:26:18;;;;;;;7.88;1.70;;;;;;;;;;5051843;28;20025;-65
2022/05/24 01:28:51;;;;;;;11.82;2.28;;;;;;;;;;5051208;28;20029;-65
2022/05/24 01:31:18;;;;;;;16.65;1.83;;;;;;;;;;5051810;28;20029;-65
2022/05/24 01:36:30;;;;;;;10.50;1.67;;;;;;;;;;5050876;28;20064;-65
2022/05/24 01:39:01;;;;;;;5.78;2.03;;;;;;;;;;5051510;28;20389;-65
2022/05/24 01:41:30;;;;;;;9.00;1.48;;;;;;;;;;5051494;28;20025;-65
2022/05/24 01:43:57;;;;;;;12.75;2.00;;;;;;;;;;5051512;28;20029;-65
2022/05/24 01:46:27;;;;;;;10.73;1.42;;;;;;;;;;5051356;28;20496;-65
2022/05/24 01:48:56;;;;;;;9.63;1.80;;;;;;;;;;5035874;28;20024;-65
2022/05/24 01:51:25;;;;;;;11.45;2.17;;;;;;;;;;5054912;28;20489;-65
2022/05/24 01:53:55;;;;;;;13.75;2.17;;;;;;;;;;5062114;28;20025;-65
2022/05/24 01:56:23;;;;;;;9.35;1.95;;;;;;;;;;5055180;28;20584;-65
2022/05/24 01:58:53;;;;;;;9.35;2.00;;;;;;;;;;5055107;28;20400;-65
2022/05/24 02:01:22;;;;;;;10.45;1.63;;;;;;;;;;5055522;28;20079;-65
2022/05/24 02:03:48;;;;;;;15.60;2.03;;;;;;;;;;5055271;28;20024;-65
2022/05/24 02:06:26;;;;;;;8.98;2.00;;;;;;;;;;5054946;28;20035;-65
2022/05/24 02:08:55;;;;;;;14.15;2.40;;;;;;;;;;5054990;28;20029;-65
2022/05/24 02:11:23;;;;;;;10.38;1.90;;;;;;;;;;5055212;28;20025;-65
2022/05/24 02:13:50;;;;;;;6.88;1.80;;;;;;;;;;5064269;28;20041;-65
2022/05/24 02:16:22;;;;;;;9.75;1.98;;;;;;;;;;5059367;28;20554;-65
2022/05/24 02:18:49;;;;;;;29.33;2.35;;;;;;;;;;5054736;28;20025;-65
2022/05/24 02:21:17;;;;;;;12.27;1.70;;;;;;;;;;5054445;28;20037;-65
2022/05/24 02:23:45;;;;;;;6.53;1.27;;;;;;;;;;5054472;28;20132;-65
2022/05/24 02:26:12;;;;;;;10.10;2.03;;;;;;;;;;5054843;28;20021;-65
2022/05/24 02:28:39;;;;;;;10.00;1.98;;;;;;;;;;5054299;28;20059;-65
2022/05/24 02:31:09;;;;;;;10.88;1.55;;;;;;;;;;5054603;28;20432;-65
2022/05/24 02:33:36;;;;;;;8.38;1.90;;;;;;;;;;5054077;28;20029;-65
2022/05/24 02:36:03;;;;;;;16.85;3.13;;;;;;;;;;5054726;28;20029;-65
2022/05/24 02:38:29;;;;;;;18.58;1.90;;;;;;;;;;5054378;28;20389;-65
2022/05/24 02:43:40;;;;;;;7.57;2.42;;;;;;;;;;5064118;28;20039;-65
2022/05/24 02:46:07;;;;;;;8.63;1.63;;;;;;;;;;5053710;28;20053;-65
2022/05/24 02:48:33;;;;;;;11.20;2.55;;;;;;;;;;5053028;28;20079;-65
2022/05/24 02:50:59;;;;;;;10.02;2.42;;;;;;;;;;5054123;28;20499;-65
2022/05/24 02:53:26;;;;;;;15.57;2.47;;;;;;;;;;5061800;28;20029;-65
2022/05/24 02:55:52;;;;;;;9.50;1.58;;;;;;;;;;5053802;28;20397;-65
2022/05/24 02:58:19;;;;;;;16.05;1.70;;;;;;;;;;5063356;28;20051;-65
2022/05/24 03:00:46;;;;;;;12.27;3.63;;;;;;;;;;5053737;28;20385;-65
2022/05/24 03:03:12;;;;;;;12.63;1.65;;;;;;;;;;5053205;28;20024;-65
2022/05/24 03:05:38;;;;;;;7.72;1.48;;;;;;;;;;5053671;28;20029;-65
2022/05/24 03:10:49;;;;;;;6.93;1.50;;;;;;;;;;5053525;28;20095;-65
2022/05/24 03:16:07;;;;;;;9.63;1.50;;;;;;;;;;5053864;28;20032;-65
2022/05/24 03:18:33;;;;;;;;;;;;;;;;;;5053799;28;20029;-65
2022/05/24 03:20:59;;;;;;;9.80;1.85;;;;;;;;;;5037526;28;20361;-65
2022/05/24 03:23:25;;;;;;;18.70;1.80;;;;;;;;;;5053882;28;20401;-65
2022/05/24 03:25:52;;;;;;;11.98;1.73;;;;;;;;;;5053280;28;20025;-65
2022/05/24 03:28:19;;;;;;;23.40;2.40;;;;;;;;;;5053581;28;20400;-65
2022/05/24 03:30:45;;;;;;;12.38;1.60;;;;;;;;;;5053214;28;20464;-65
2022/05/24 03:33:12;;;;;;;8.73;2.63;;;;;;;;;;5053244;28;20079;-65
2022/05/24 03:35:38;;;;;;;8.75;1.63;;;;;;;;;;5053315;28;20078;-65
2022/05/24 03:38:05;;;;;;;16.58;2.00;;;;;;;;;;5053479;28;20128;-65
2022/05/24 03:40:31;;;;;;;17.10;2.10;;;;;;;;;;5053284;28;20415;-65
2022/05/24 03:42:57;;;;;;;11.30;1.50;;;;;;;;;;5067501;28;20025;-65
2022/05/24 03:45:24;;;;;;;10.48;1.67;;;;;;;;;;5053263;28;20026;-65
2022/05/24 03:47:50;;;;;;;11.65;2.38;;;;;;;;;;5052549;28;20031;-65
2022/05/24 03:50:17;;;;;;;6.68;1.83;;;;;;;;;;5053171;28;20079;-65
2022/05/24 03:52:43;;;;;;;9.18;1.95;;;;;;;;;;5061434;28;20051;-65
2022/05/24 03:55:09;;;;;;;10.88;1.55;;;;;;;;;;5053054;28;20017;-65
2022/05/24 04:00:22;;;;;;;8.13;2.35;;;;;;;;;;5047751;28;20033;-65
2022/05/24 04:02:48;;;;;;;9.23;1.58;;;;;;;;;;5052537;28;20025;-65
2022/05/24 04:05:14;;;;;;;9.80;1.70;;;;;;;;;;5053226;28;20400;-64
2022/05/24 04:07:41;;;;;;;8.00;1.42;;;;;;;;;;5052320;28;20029;-64
2022/05/24 04:10:08;;;;;;;15.63;1.80;;;;;;;;;;5050856;28;20443;-64
2022/05/24 04:12:34;;;;;;;8.63;2.30;;;;;;;;;;5052228;28;20032;-64
2022/05/24 04:15:01;;;;;;;11.70;1.25;;;;;;;;;;5051371;28;20028;-64
2022/05/24 04:17:27;;;;;;;7.88;1.75;;;;;;;;;;5050880;28;20028;-64
2022/05/24 04:19:53;;;;;;;12.32;1.70;;;;;;;;;;5052227;28;20063;-64
2022/05/24 04:22:19;;;;;;;6.20;1.60;;;;;;;;;;5052493;28;20078;-65
2022/05/24 04:24:46;;;;;;;12.75;1.60;;;;;;;;;;5052100;28;20532;-65
2022/05/24 04:27:13;;;;;;;11.38;1.30;;;;;;;;;;5051474;28;20025;-70
2022/05/24 04:29:42;;;;;;;8.25;1.70;;;;;;;;;;5046904;28;20064;-63
2022/05/24 04:32:09;;;;;;;10.07;1.58;;;;;;;;;;5051682;28;20115;-63
2022/05/24 04:34:36;;;;;;;7.88;1.77;;;;;;;;;;5052998;28;20082;-63
2022/05/24 04:37:02;;;;;;;9.43;1.30;;;;;;;;;;5052463;28;20033;-63
2022/05/24 04:39:29;;;;;;;11.88;1.50;;;;;;;;;;5059312;28;20021;-63
2022/05/24 04:44:40;;;;;;;10.52;1.50;;;;;;;;;;5051906;28;20079;-62
2022/05/24 04:47:09;;;;;;;9.43;1.80;;;;;;;;;;5054779;28;20021;-62
2022/05/24 04:49:40;;;;;;;6.85;1.50;;;;;;;;;;5053110;28;20491;-62
2022/05/24 04:52:08;;;;;;;5.90;1.00;;;;;;;;;;5051273;28;20095;-62
2022/05/24 04:54:35;;;;;;;8.20;1.50;;;;;;;;;;5050699;28;20484;-62
2022/05/24 04:57:01;;;;;;;6.38;1.40;;;;;;;;;;5050867;28;20124;-62
2022/05/24 04:59:27;;;;;;;9.27;1.27;;;;;;;;;;5049309;28;20091;-62
2022/05/24 05:01:53;;;;;;;6.28;1.25;;;;;;;;;;5054756;28;20033;-62
2022/05/24 05:04:20;;;;;;;7.85;1.45;;;;;;;;;;5051939;28;20053;-61
2022/05/24 05:06:47;;;;;;;12.55;3.30;;;;;;;;;;5054461;28;20059;-61
2022/05/24 05:09:14;;;;;;;8.40;1.45;;;;;;;;;;5051180;28;20021;-61
2022/05/24 05:11:40;;;;;;;7.03;1.45;;;;;;;;;;5051977;28;20123;-61
2022/05/24 05:14:07;;;;;;;9.38;1.30;;;;;;;;;;5045791;28;20033;-61
2022/05/24 05:16:33;;;;;;;4.63;1.30;;;;;;;;;;5049712;28;20485;-61
2022/05/24 05:18:59;;;;;;;8.30;1.45;;;;;;;;;;5050140;28;20405;-61
2022/05/24 05:21:31;;;;;;;9.15;1.70;;;;;;;;;;5050647;28;20435;-61
2022/05/24 05:23:57;;;;;;;9.18;2.00;;;;;;;;;;5056967;28;20024;-61
2022/05/24 05:26:23;;;;;;;15.27;1.65;;;;;;;;;;5053408;28;20073;-61
2022/05/24 05:28:49;;;;;;;10.73;2.03;;;;;;;;;;5046346;28;20037;-61
2022/05/24 05:31:26;;;;;;;12.25;1.80;;;;;;;;;;5050665;28;20053;-61
2022/05/24 05:33:56;;;;;;;8.35;1.20;;;;;;;;;;5048579;28;20025;-61
2022/05/24 05:36:23;;;;;;;5.95;1.48;;;;;;;;;;5050540;28;21000;-69
2022/05/24 05:38:49;;;;;;;6.75;1.38;;;;;;;;;;5045185;28;20049;-61
2022/05/24 05:41:17;;;;;;;9.18;1.45;;;;;;;;;;5047492;28;20047;-61
2022/05/24 05:43:43;;;;;;;7.60;1.70;;;;;;;;;;5049783;28;20052;-61
2022/05/24 05:46:10;;;;;;;5.22;1.10;;;;;;;;;;5049621;28;20033;-61
2022/05/24 05:48:37;;;;;;;10.35;1.63;;;;;;;;;;5049693;28;20025;-61
2022/05/24 05:51:03;;;;;;;9.88;1.48;;;;;;;;;;5050417;28;20035;-61
2022/05/24 05:53:30;;;;;;;15.13;1.70;;;;;;;;;;5050491;28;20025;-61
2022/05/24 05:55:56;;;;;;;8.10;1.30;;;;;;;;;;5050691;28;20032;-61
2022/05/24 05:58:22;;;;;;;11.45;1.38;;;;;;;;;;5049855;28;20037;-61
2022/05/24 06:00:49;;;;;;;7.30;1.35;;;;;;;;;;5049316;28;20029;-61
2022/05/24 06:03:16;;;;;;;14.85;1.88;;;;;;;;;;5051000;28;20025;-61
2022/05/24 06:05:43;;;;;;;4.40;1.80;;;;;;;;;;5049784;28;20109;-61
2022/05/24 06:08:11;;;;;;;6.90;1.25;;;;;;;;;;5049852;28;20021;-61
2022/05/24 06:10:37;;;;;;;9.48;1.73;;;;;;;;;;5049770;28;20043;-61
2022/05/24 06:13:04;;;;;;;7.65;2.50;;;;;;;;;;5051201;28;20025;-61
2022/05/24 06:15:32;;;;;;;12.23;1.83;;;;;;;;;;5050419;28;20025;-61
2022/05/24 06:17:58;;;;;;;12.40;1.85;;;;;;;;;;5051578;28;20027;-61
2022/05/24 06:20:25;;;;;;;11.25;1.50;;;;;;;;;;5051123;28;20127;-61
2022/05/24 06:22:54;;;;;;;9.27;1.33;;;;;;;;;;5051614;28;20054;-61
2022/05/24 06:25:21;;;;;;;10.27;1.33;;;;;;;;;;5051278;28;20033;-61
2022/05/24 06:27:47;;;;;;;5.57;1.45;;;;;;;;;;5051097;28;20397;-61
2022/05/24 06:30:15;;;;;;;7.47;1.52;;;;;;;;;;5060803;28;20388;-61
2022/05/24 06:32:41;;;;;;;10.88;1.25;;;;;;;;;;5071438;28;20500;-61
2022/05/24 06:35:09;;;;;;;9.02;1.52;;;;;;;;;;5071547;28;20028;-61
2022/05/24 06:37:35;;;;;;;6.97;1.40;;;;;;;;;;5073219;28;20029;-61
2022/05/24 06:40:02;;;;;;;12.18;1.95;;;;;;;;;;5074650;28;20036;-61
2022/05/24 06:42:28;;;;;;;9.15;1.35;;;;;;;;;;5074503;28;20035;-61
2022/05/24 06:44:56;;;;;;;8.23;2.00;;;;;;;;;;5071792;28;20519;-61
2022/05/24 06:47:22;;;;;;;5.45;1.20;;;;;;;;;;5054268;28;20025;-61
2022/05/24 06:49:48;;;;;;;7.20;1.40;;;;;;;;;;5054628;28;20044;-61
2022/05/24 06:52:15;;;;;;;5.82;1.25;;;;;;;;;;5054573;28;20027;-61
2022/05/24 06:54:41;;;;;;;11.30;1.67;;;;;;;;;;5054221;28;20029;-61
2022/05/24 06:57:07;;;;;;;12.80;1.55;;;;;;;;;;5054460;28;20106;-61
2022/05/24 07:02:25;;;;;;;8.65;1.27;;;;;;;;;;5065955;28;20029;-61
2022/05/24 07:04:57;;;;;;;6.43;1.25;;;;;;;;;;5054422;28;20047;-61
2022/05/24 07:07:24;;;;;;;10.48;1.48;;;;;;;;;;5054258;28;20043;-62
2022/05/24 07:09:51;;;;;;;10.07;1.25;;;;;;;;;;5053137;28;20059;-63
2022/05/24 07:12:21;;;;;;;9.05;1.60;;;;;;;;;;5053056;28;20034;-62
2022/05/24 07:14:48;;;;;;;6.25;1.20;;;;;;;;;;5053285;28;20091;-62
2022/05/24 07:17:15;;;;;;;6.68;1.05;;;;;;;;;;5054284;28;20025;-63
2022/05/24 07:19:41;;;;;;;9.70;1.30;;;;;;;;;;5050976;28;20040;-62
2022/05/24 07:22:09;;;;;;;5.20;1.08;;;;;;;;;;5051326;28;20386;-62
2022/05/24 07:24:35;;;;;;;4.38;1.33;;;;;;;;;;5051669;28;20468;-62
2022/05/24 07:27:04;;;;;;;9.23;1.23;;;;;;;;;;5052081;28;20021;-62
2022/05/24 07:29:33;;;;;;;6.32;1.60;;;;;;;;;;5050332;28;20090;-62
2022/05/24 07:31:59;;;;;;;7.97;1.50;;;;;;;;;;5047048;28;20035;-63
2022/05/24 07:34:26;;;;;;;11.85;1.52;;;;;;;;;;5051837;28;20063;-62
2022/05/24 07:36:52;;;;;;;10.15;1.45;;;;;;;;;;5052022;28;20025;-63
2022/05/24 07:39:18;;;;;;;7.35;1.38;;;;;;;;;;5051237;28;20028;-62
2022/05/24 07:47:16;;;;;;;6.15;1.13;;;;;;;;;;5024099;28;20133;-63
2022/05/24 07:49:42;;;;;;;11.98;1.52;;;;;;;;;;5017019;28;20037;-63
2022/05/24 07:52:08;;;;;;;8.48;1.98;;;;;;;;;;5014670;28;20072;-63
2022/05/24 07:54:35;;;;;;;8.25;1.75;;;;;;;;;;5025302;28;20025;-62
2022/05/24 07:57:01;;;;;;;11.18;2.17;;;;;;;;;;5021535;28;20077;-63
2022/05/24 07:59:28;;;;;;;5.53;1.20;;;;;;;;;;5021185;28;20080;-63
2022/05/24 08:01:54;;;;;;;8.35;1.40;;;;;;;;;;5021184;28;20374;-62
2022/05/24 08:04:20;;;;;;;5.15;1.17;;;;;;;;;;5021062;28;20124;-63
2022/05/24 08:06:47;;;;;;;8.15;1.67;;;;;;;;;;5017464;28;20478;-62
2022/05/24 08:09:13;;;;;;;7.38;1.27;;;;;;;;;;5019760;28;20188;-63
2022/05/24 08:11:39;;;;;;;10.15;1.60;;;;;;;;;;5021890;28;20060;-62
2022/05/24 08:14:06;;;;;;;8.80;1.55;;;;;;;;;;5021049;28;20029;-63
2022/05/24 08:16:32;;;;;;;9.80;1.42;;;;;;;;;;5025620;28;20021;-63
2022/05/24 08:18:59;;;;;;;7.93;1.23;;;;;;;;;;5017079;28;20224;-62
2022/05/24 08:21:26;;;;;;;7.97;1.33;;;;;;;;;;5003412;28;20116;-63
2022/05/24 08:23:52;;;;;;;14.23;1.40;;;;;;;;;;5028708;28;20041;-63
2022/05/24 08:26:18;;;;;;;7.45;1.30;;;;;;;;;;5045556;28;20040;-62
2022/05/24 08:28:47;;;;;;;7.00;1.50;;;;;;;;;;5050582;28;20029;-63
2022/05/24 08:31:13;;;;;;;6.35;1.52;;;;;;;;;;5047229;28;20016;-63
2022/05/24 08:33:40;;;;;;;11.80;1.63;;;;;;;;;;5043825;28;20115;-63
2022/05/24 08:36:07;;;;;;;7.85;1.23;;;;;;;;;;5044086;28;20079;-63
2022/05/24 08:38:34;;;;;;;11.32;1.70;;;;;;;;;;5049907;28;20025;-62
2022/05/24 08:41:02;;;;;;;6.22;1.20;;;;;;;;;;5050421;28;20496;-63
2022/05/24 08:43:46;;;;;;;11.68;1.95;;;;;;;;;;5051091;28;20033;-63
2022/05/24 08:49:05;;;;;;;12.65;1.52;;;;;;;;;;5042929;28;20048;-63
2022/05/24 08:51:46;;;;;;;11.50;1.35;;;;;;;;;;5050747;28;20043;-62
2022/05/24 08:54:15;;;;;;;9.02;1.10;;;;;;;;;;5044821;28;20057;-63
2022/05/24 08:56:58;;;;;;;5.85;1.17;;;;;;;;;;5049917;28;20105;-63
2022/05/24 08:59:24;;;;;;;;;;;;;;;;;;5049250;28;20064;-63
2022/05/24 09:01:50;;;;;;;9.82;1.15;;;;;;;;;;5050393;28;19905;-63
2022/05/24 09:04:17;;;;;;;9.80;0.93;;;;;;;;;;5050659;28;20033;-62
2022/05/24 09:06:46;;;;;;;6.25;0.90;;;;;;;;;;5050250;28;20485;-63
2022/05/24 09:09:12;;;;;;;11.02;1.10;;;;;;;;;;5050667;28;20025;-62
2022/05/24 09:11:50;;;;;;;6.28;1.13;;;;;;;;;;5050769;28;20121;-63
2022/05/24 09:14:24;;;;;;;5.78;1.00;;;;;;;;;;5050729;28;20112;-63
2022/05/24 09:16:50;;;;;;;10.48;1.60;;;;;;;;;;5050603;28;20063;-63
2022/05/24 09:19:20;;;;;;;9.27;1.17;;;;;;;;;;5050221;28;20021;-63
2022/05/24 09:21:51;;;;;;;10.88;2.15;;;;;;;;;;5050229;28;20056;-62
2022/05/24 09:24:22;;;;;;;11.93;1.70;;;;;;;;;;5050386;28;20036;-63
2022/05/24 09:27:09;;;;;;;5.63;1.17;;;;;;;;;;5050227;28;20025;-63
2022/05/24 09:29:36;;;;;;;7.85;1.13;;;;;;;;;;5049577;28;20031;-62
2022/05/24 09:32:07;;;;;;;9.63;1.92;;;;;;;;;;5050310;28;20017;-63
2022/05/24 09:34:34;;;;;;;8.02;1.60;;;;;;;;;;5049923;28;20037;-63
2022/05/24 09:37:02;;;;;;;11.13;1.42;;;;;;;;;;5049851;28;20080;-63
2022/05/24 09:39:31;;;;;;;7.53;1.13;;;;;;;;;;5049568;28;20067;-62
2022/05/24 09:41:58;;;;;;;8.95;1.38;;;;;;;;;;5049878;28;20507;-62
2022/05/24 09:44:24;;;;;;;5.55;1.00;;;;;;;;;;5051729;28;20032;-62
2022/05/24 09:46:50;;;;;;;8.35;1.30;;;;;;;;;;5050456;28;20021;-62
2022/05/24 09:49:21;;;;;;;8.50;1.60;;;;;;;;;;5048741;28;20488;-62
2022/05/24 09:51:48;;;;;;;9.15;1.30;;;;;;;;;;5050220;28;20033;-62
2022/05/24 09:54:16;;;;;;;7.82;1.10;;;;;;;;;;5050124;28;20025;-62
2022/05/24 09:56:58;;;;;;;15.45;1.35;;;;;;;;;;5050022;28;20043;-62
2022/05/24 09:59:26;;;;;;;6.05;1.48;;;;;;;;;;5046225;28;20493;-62
2022/05/24 10:01:53;;;;;;;9.18;1.52;;;;;;;;;;5050027;28;20025;-62
2022/05/24 10:04:23;;;;;;;8.65;1.33;;;;;;;;;;5049575;28;20029;-62
2022/05/24 10:06:59;;;;;;;10.77;1.35;;;;;;;;;;5049849;28;20030;-62
2022/05/24 10:09:31;;;;;;;9.80;1.17;;;;;;;;;;5045205;28;20112;-62
2022/05/24 10:11:57;;;;;;;10.10;2.15;;;;;;;;;;5050664;28;20013;-62
2022/05/24 10:14:40;;;;;;;11.50;1.13;;;;;;;;;;5049416;28;20029;-62
2022/05/24 10:17:29;;;;;;;13.32;1.00;;;;;;;;;;5051392;28;20091;-62
2022/05/24 10:20:14;;;;;;;6.00;1.10;;;;;;;;;;5050508;28;20033;-62
2022/05/24 10:22:49;;;;;;;8.50;1.45;;;;;;;;;;5053330;28;20033;-62
2022/05/24 10:25:18;;;;;;;6.45;1.17;;;;;;;;;;5053374;28;20072;-62
2022/05/24 10:28:04;;;;;;;3.95;1.20;;;;;;;;;;5055528;28;20032;-62
2022/05/24 10:30:44;;;;;;;7.35;1.08;;;;;;;;;;5054716;28;20041;-62
2022/05/24 10:39:36;;;;;;;10.48;1.30;;;;;;;;;;5013048;28;20042;-62
2022/05/24 10:42:07;;;;;;;9.82;1.23;;;;;;;;;;5012705;28;20124;-62
2022/05/24 10:44:44;;;;;;;9.05;2.53;;;;;;;;;;5012168;28;20034;-62
2022/05/24 10:47:17;;;;;;;6.35;1.25;;;;;;;;;;5011888;28;20456;-62
2022/05/24 10:49:43;;;;;;;10.55;1.77;;;;;;;;;;5012373;28;20607;-62
2022/05/24 10:52:15;;;;;;;7.82;1.60;;;;;;;;;;5013086;28;20041;-62
2022/05/24 10:54:51;;;;;;;9.45;1.00;;;;;;;;;;5013193;28;20165;-62
2022/05/24 10:57:41;;;;;;;8.32;1.25;;;;;;;;;;5012019;28;20057;-62
2022/05/24 11:00:07;;;;;;;7.05;1.55;;;;;;;;;;5007571;28;20046;-62
2022/05/24 11:02:42;;;;;;;8.38;1.08;;;;;;;;;;5012628;28;20042;-62
2022/05/24 11:05:17;;;;;;;8.07;1.20;;;;;;;;;;5012303;28;20041;-62
2022/05/24 11:07:45;;;;;;;11.63;1.50;;;;;;;;;;5012759;28;20061;-61
2022/05/24 11:10:21;;;;;;;3.03;0.98;;;;;;;;;;5011509;28;20030;-61
2022/05/24 11:12:49;;;;;;;6.47;1.23;;;;;;;;;;5012351;28;20112;-62
2022/05/24 11:15:24;;;;;;;9.63;1.02;;;;;;;;;;5044954;28;20162;-62
2022/05/24 11:17:51;;;;;;;5.35;1.30;;;;;;;;;;5054259;28;20113;-62
2022/05/24 11:20:24;;;;;;;10.40;1.40;;;;;;;;;;5053973;28;20028;-62
2022/05/24 11:23:02;;;;;;;8.60;1.30;;;;;;;;;;5052654;28;20527;-62
2022/05/24 11:25:31;;;;;;;5.88;0.98;;;;;;;;;;5053968;28;20033;-62
2022/05/24 11:27:57;;;;;;;8.93;1.35;;;;;;;;;;5054220;28;20029;-62
2022/05/24 11:30:26;;;;;;;8.68;1.40;;;;;;;;;;5051615;28;20033;-62
2022/05/24 11:32:55;;;;;;;6.20;1.33;;;;;;;;;;5055052;28;20389;-61
2022/05/24 11:35:21;;;;;;;5.40;1.10;;;;;;;;;;5034622;28;20385;-62
2022/05/24 11:37:51;;;;;;;6.47;1.27;;;;;;;;;;5038746;28;20393;-62
2022/05/24 11:40:24;;;;;;;12.45;1.48;;;;;;;;;;5052635;28;20040;-62
2022/05/24 11:42:50;;;;;;;6.63;0.95;;;;;;;;;;5050046;28;20071;-62
2022/05/24 11:45:28;;;;;;;10.88;2.25;;;;;;;;;;5053779;28;20017;-62
2022/05/24 11:47:54;;;;;;;11.55;1.17;;;;;;;;;;5053907;28;20473;-62
2022/05/24 11:50:39;;;;;;;4.18;0.90;;;;;;;;;;5053389;28;20389;-62
2022/05/24 11:53:26;;;;;;;7.93;1.23;;;;;;;;;;5053148;28;20031;-62
2022/05/24 11:55:55;;;;;;;5.43;1.50;;;;;;;;;;5046316;28;20041;-62
2022/05/24 11:58:21;;;;;;;12.77;1.25;;;;;;;;;;5053175;28;20056;-62
2022/05/24 12:00:56;;;;;;;13.68;1.38;;;;;;;;;;5053164;28;20409;-62
2022/05/24 12:09:18;;;;;;;8.90;1.23;;;;;;;;;;5053224;28;20028;-62
2022/05/24 12:11:45;;;;;;;9.20;1.52;;;;;;;;;;5053328;28;20374;-62
2022/05/24 12:14:16;;;;;;;7.78;1.10;;;;;;;;;;5052797;28;20104;-62
2022/05/24 12:16:46;;;;;;;6.10;1.30;;;;;;;;;;5053299;28;20033;-62
2022/05/24 12:19:30;;;;;;;12.48;1.30;;;;;;;;;;5053132;28;20031;-62
2022/05/24 12:21:57;;;;;;;3.42;0.75;;;;;;;;;;5053104;28;20555;-62
2022/05/24 12:24:29;;;;;;;7.75;1.17;;;;;;;;;;5051301;28;20025;-62
2022/05/24 12:27:07;;;;;;;7.43;2.22;;;;;;;;;;5052617;28;20017;-63
2022/05/24 12:29:34;;;;;;;6.28;1.48;;;;;;;;;;5047552;28;20892;-62
2022/05/24 12:32:04;;;;;;;6.75;1.10;;;;;;;;;;5050965;28;20028;-62
2022/05/24 12:34:34;;;;;;;3.60;0.90;;;;;;;;;;5051213;28;20102;-63
2022/05/24 12:37:23;;;;;;;4.25;1.00;;;;;;;;;;5051170;28;20060;-63
2022/05/24 12:40:05;;;;;;;3.72;0.70;;;;;;;;;;5044537;28;20146;-62
2022/05/24 12:42:31;;;;;;;6.35;1.10;;;;;;;;;;5050414;28;20048;-62
2022/05/24 12:45:00;;;;;;;7.82;0.90;;;;;;;;;;5052387;28;20036;-63
2022/05/24 12:47:26;;;;;;;6.03;0.77;;;;;;;;;;5050741;28;20157;-63
2022/05/24 12:49:52;;;;;;;2.90;0.90;;;;;;;;;;5051021;28;20033;-63
2022/05/24 12:52:22;;;;;;;6.78;0.90;;;;;;;;;;5051234;28;20062;-63
2022/05/24 12:54:53;;;;;;;8.43;1.00;;;;;;;;;;5050945;28;20067;-63
2022/05/24 12:57:30;;;;;;;8.15;0.90;;;;;;;;;;5050659;28;20041;-63
2022/05/24 13:00:00;;;;;;;3.53;0.60;;;;;;;;;;5050584;28;20028;-63
2022/05/24 13:02:31;;;;;;;7.40;1.05;;;;;;;;;;5050272;28;20063;-62
2022/05/24 13:05:15;;;;;;;5.38;0.70;;;;;;;;;;5050995;28;20492;-62
2022/05/24 13:07:42;;;;;;;6.38;0.65;;;;;;;;;;5050341;28;20033;-62
2022/05/24 13:10:11;;;;;;;5.38;1.42;;;;;;;;;;5050785;28;20021;-62
2022/05/24 13:12:37;;;;;;;5.65;0.88;;;;;;;;;;5049512;28;20116;-62
2022/05/24 13:15:04;;;;;;;9.18;1.02;;;;;;;;;;5050455;28;20032;-62
2022/05/24 13:17:38;;;;;;;5.00;1.00;;;;;;;;;;5050250;28;20029;-62
2022/05/24 13:20:07;;;;;;;10.98;1.08;;;;;;;;;;5050579;28;20055;-62
2022/05/24 13:22:42;;;;;;;4.50;0.90;;;;;;;;;;5050569;28;20025;-62
2022/05/24 13:25:18;;;;;;;4.40;0.93;;;;;;;;;;5050900;28;20056;-62
2022/05/24 13:27:53;;;;;;;1.55;0.50;;;;;;;;;;5050544;28;20400;-62
2022/05/24 13:33:34;;;;;;;2.03;0.70;;;;;;;;;;5046082;28;20460;-62
2022/05/24 13:36:02;;;;;;;4.40;1.00;;;;;;;;;;5049522;28;20421;-62
2022/05/24 13:38:29;;;;;;;10.27;1.08;;;;;;;;;;5050460;28;20025;-62
2022/05/24 13:40:56;;;;;;;8.07;2.10;;;;;;;;;;5049849;28;20032;-62
2022/05/24 13:43:34;;;;;;;7.65;1.17;;;;;;;;;;5050598;28;20095;-62
2022/05/24 13:46:07;;;;;;;4.05;0.80;;;;;;;;;;5051897;28;20492;-63
2022/05/24 13:48:38;;;;;;;9.35;1.05;;;;;;;;;;5054258;28;20032;-62
2022/05/24 13:51:06;;;;;;;4.23;0.80;;;;;;;;;;5054068;28;20028;-62
2022/05/24 13:53:39;;;;;;;2.75;0.70;;;;;;;;;;5053934;28;20031;-62
2022/05/24 13:56:23;;;;;;;4.82;0.98;;;;;;;;;;5042575;28;20282;-62
2022/05/24 13:59:10;;;;;;;9.07;1.25;;;;;;;;;;5052896;28;20188;-62
2022/05/24 14:01:37;;;;;;;6.90;1.10;;;;;;;;;;5042750;28;20052;-62
2022/05/24 14:04:14;;;;;;;3.13;1.08;;;;;;;;;;5053220;28;20020;-62
2022/05/24 14:06:47;;;;;;;5.22;1.33;;;;;;;;;;5051659;28;20024;-62
2022/05/24 14:09:13;;;;;;;3.05;0.80;;;;;;;;;;5056614;28;20039;-62
2022/05/24 14:11:47;;;;;;;4.63;0.73;;;;;;;;;;5052804;28;20393;-62
2022/05/24 14:14:13;;;;;;;7.22;1.25;;;;;;;;;;5034232;28;20017;-62
2022/05/24 14:16:40;;;;;;;2.67;0.98;;;;;;;;;;5057124;28;20025;-62
2022/05/24 14:19:06;;;;;;;1.33;0.60;;;;;;;;;;5054986;28;20670;-62
2022/05/24 14:21:33;;;;;;;5.10;0.98;;;;;;;;;;5067952;28;20031;-62
2022/05/24 14:24:00;;;;;;;8.43;0.90;;;;;;;;;;5054015;28;20033;-62
2022/05/24 14:26:26;;;;;;;7.18;1.27;;;;;;;;;;5058780;28;20546;-62
2022/05/24 14:28:54;;;;;;;4.43;0.50;;;;;;;;;;5058616;28;20485;-62
2022/05/24 14:31:21;;;;;;;5.03;0.98;;;;;;;;;;5054749;28;20013;-62
2022/05/24 14:33:48;;;;;;;2.03;0.55;;;;;;;;;;5054722;28;20112;-62
2022/05/24 14:36:14;;;;;;;4.55;1.40;;;;;;;;;;5057415;28;20035;-62
2022/05/24 14:38:40;;;;;;;9.07;0.98;;;;;;;;;;5074681;28;20045;-62
2022/05/24 14:41:20;;;;;;;2.08;0.70;;;;;;;;;;5065448;28;20031;-62
2022/05/24 14:43:47;;;;;;;4.57;0.60;;;;;;;;;;5054631;28;20028;-62
2022/05/24 14:46:14;;;;;;;4.00;0.73;;;;;;;;;;5050932;28;20045;-62
2022/05/24 14:48:40;;;;;;;2.80;0.50;;;;;;;;;;5049340;28;20032;-62
2022/05/24 14:51:07;;;;;;;3.53;0.65;;;;;;;;;;5056518;28;20032;-62
2022/05/24 14:53:33;;;;;;;6.45;0.90;;;;;;;;;;5053930;28;20035;-62
2022/05/24 14:55:59;;;;;;;5.07;1.02;;;;;;;;;;5053782;28;20480;-62
2022/05/24 14:58:26;;;;;;;8.02;0.95;;;;;;;;;;5050723;28;20142;-62
2022/05/24 15:00:52;;;;;;;5.93;0.80;;;;;;;;;;5053824;28;20510;-62
2022/05/24 15:03:18;;;;;;;6.15;0.73;;;;;;;;;;5053883;28;20036;-62
2022/05/24 15:05:44;;;;;;;6.30;1.30;;;;;;;;;;5053791;28;20521;-62
2022/05/24 15:16:26;;;;;;;5.70;1.00;;;;;;;;;;5053538;28;20108;-62
2022/05/24 15:18:53;;;;;;;4.95;0.80;;;;;;;;;;5060644;28;20036;-62
2022/05/24 15:21:21;;;;;;;5.88;0.88;;;;;;;;;;5048966;28;20067;-62
2022/05/24 15:23:50;;;;;;;4.80;0.77;;;;;;;;;;5047637;28;20036;-62
2022/05/24 15:26:19;;;;;;;5.35;0.70;;;;;;;;;;5051560;28;20021;-62
2022/05/24 15:28:51;;;;;;;9.95;0.80;;;;;;;;;;5062401;28;20021;-62
2022/05/24 15:31:18;;;;;;;3.08;0.70;;;;;;;;;;5040259;28;20028;-62
2022/05/24 15:33:44;;;;;;;7.80;1.52;;;;;;;;;;5054091;28;20147;-62
2022/05/24 15:36:11;;;;;;;4.63;0.98;;;;;;;;;;5055965;28;20025;-62
2022/05/24 15:38:37;;;;;;;7.18;0.88;;;;;;;;;;5053573;28;20470;-62
2022/05/24 15:41:03;;;;;;;8.32;1.27;;;;;;;;;;5053566;28;20032;-62
2022/05/24 15:43:29;;;;;;;7.53;1.13;;;;;;;;;;5049833;28;20080;-62